createdAt,value
2018-11-07T00:01:20.246Z,5.50
2018-11-07T00:04:13.193Z,5.40
2018-11-07T00:06:46.972Z,5.50
2018-11-07T00:09:21.799Z,5.40
2018-11-07T00:11:55.557Z,5.30
2018-11-07T00:14:30.447Z,5.30
2018-11-07T00:17:04.246Z,5.20
2018-11-07T00:22:48.261Z,5.60
2018-11-07T00:25:22.060Z,6.10
2018-11-07T00:30:59.295Z,6.70
2018-11-07T00:33:33.161Z,6.80
2018-11-07T00:36:07.017Z,6.80
2018-11-07T00:38:40.786Z,6.80
2018-11-07T00:41:15.567Z,6.70
2018-11-07T00:43:49.458Z,6.70
2018-11-07T00:46:24.306Z,6.70
2018-11-07T00:48:58.101Z,6.60
2018-11-07T00:51:33.030Z,6.70
2018-11-07T00:54:06.891Z,6.90
2018-11-07T00:56:41.688Z,7.50
2018-11-07T00:59:15.451Z,7.70
2018-11-07T01:01:51.302Z,7.80
2018-11-07T01:04:25.078Z,7.70
2018-11-07T01:07:00.881Z,7.80
2018-11-07T01:09:35.095Z,7.80
2018-11-07T01:12:10.051Z,7.70
2018-11-07T01:14:43.820Z,7.60
2018-11-07T01:17:17.660Z,7.40
2018-11-07T01:19:51.465Z,7.40
2018-11-07T01:22:26.389Z,7.20
2018-11-07T01:25:00.397Z,7.10
2018-11-07T01:27:35.538Z,7.20
2018-11-07T01:30:12.329Z,7.40
2018-11-07T01:32:46.115Z,7.50
2018-11-07T01:35:19.955Z,7.40
2018-11-07T01:37:55.801Z,7.50
2018-11-07T01:40:29.622Z,7.50
2018-11-07T01:43:03.398Z,7.60
2018-11-07T01:45:37.181Z,7.70
2018-11-07T01:48:11.001Z,7.80
2018-11-07T01:50:44.806Z,7.70
2018-11-07T01:53:19.642Z,7.60
2018-11-07T01:55:53.459Z,7.50
2018-11-07T01:58:27.248Z,7.40
2018-11-07T02:01:01.032Z,7.40
2018-11-07T02:03:34.928Z,7.30
2018-11-07T02:06:08.691Z,7.30
2018-11-07T02:08:42.478Z,7.10
2018-11-07T02:11:16.621Z,7.10
2018-11-07T02:13:50.405Z,7.00
2018-11-07T02:16:24.620Z,6.90
2018-11-07T02:18:58.427Z,6.80
2018-11-07T02:21:32.213Z,6.70
2018-11-07T02:24:08.132Z,6.60
2018-11-07T02:26:41.934Z,6.50
2018-11-07T02:29:17.749Z,6.60
2018-11-07T02:31:51.520Z,6.60
2018-11-07T02:34:26.428Z,6.60
2018-11-07T02:37:00.346Z,6.60
2018-11-07T02:39:36.255Z,6.40
2018-11-07T02:42:10.025Z,6.00
2018-11-07T02:44:45.833Z,6.30
2018-11-07T02:47:19.642Z,6.20
2018-11-07T02:49:58.739Z,6.10
2018-11-07T02:52:32.518Z,6.00
2018-11-07T02:55:08.612Z,5.90
2018-11-07T02:57:42.419Z,6.10
2018-11-07T03:00:18.235Z,6.10
2018-11-07T03:02:52.041Z,6.10
2018-11-07T03:05:26.857Z,6.10
2018-11-07T03:08:00.732Z,6.10
2018-11-07T03:10:35.610Z,5.90
2018-11-07T03:13:09.525Z,5.80
2018-11-07T03:16:00.223Z,6.00
2018-11-07T03:18:34.047Z,6.60
2018-11-07T03:21:09.972Z,6.70
2018-11-07T03:23:43.746Z,6.60
2018-11-07T03:26:17.548Z,6.60
2018-11-07T03:28:51.323Z,6.60
2018-11-07T03:31:29.485Z,6.70
2018-11-07T03:34:03.252Z,6.60
2018-11-07T03:36:37.070Z,6.50
2018-11-07T03:39:11.870Z,6.50
2018-11-07T03:41:46.730Z,6.50
2018-11-07T03:44:20.480Z,6.40
2018-11-07T03:47:05.844Z,6.50
2018-11-07T03:49:39.628Z,6.40
2018-11-07T03:52:15.001Z,6.50
2018-11-07T03:54:48.787Z,6.50
2018-11-07T03:57:28.784Z,6.30
2018-11-07T04:00:02.659Z,6.50
2018-11-07T04:02:44.963Z,6.60
2018-11-07T04:05:18.788Z,6.60
2018-11-07T04:07:54.597Z,6.60
2018-11-07T04:10:28.387Z,6.60
2018-11-07T04:13:04.390Z,6.50
2018-11-07T04:15:38.573Z,6.50
2018-11-07T04:18:14.436Z,6.50
2018-11-07T04:20:48.245Z,6.70
2018-11-07T04:23:22.063Z,7.10
2018-11-07T04:25:55.909Z,7.30
2018-11-07T04:28:46.719Z,7.30
2018-11-07T04:31:20.549Z,7.30
2018-11-07T04:36:52.270Z,7.40
2018-11-07T04:39:26.059Z,7.30
2018-11-07T04:42:05.736Z,7.20
2018-11-07T04:44:39.522Z,7.10
2018-11-07T04:47:13.425Z,7.20
2018-11-07T04:49:47.261Z,7.30
2018-11-07T04:52:44.338Z,7.20
2018-11-07T04:55:18.100Z,7.30
2018-11-07T04:57:52.983Z,7.30
2018-11-07T05:00:27.081Z,7.30
2018-11-07T05:03:01.934Z,7.40
2018-11-07T05:05:35.719Z,7.40
2018-11-07T05:08:09.566Z,7.50
2018-11-07T05:10:43.367Z,7.50
2018-11-07T05:13:18.161Z,7.50
2018-11-07T05:15:51.937Z,7.50
2018-11-07T05:18:27.793Z,7.60
2018-11-07T05:21:01.547Z,7.60
2018-11-07T05:23:36.371Z,7.70
2018-11-07T05:26:10.209Z,7.70
2018-11-07T05:28:45.245Z,7.60
2018-11-07T05:31:18.973Z,7.50
2018-11-07T05:33:53.013Z,7.40
2018-11-07T05:36:26.766Z,7.60
2018-11-07T05:39:00.757Z,7.50
2018-11-07T05:41:35.148Z,7.50
2018-11-07T05:44:09.547Z,7.50
2018-11-07T05:46:43.306Z,7.50
2018-11-07T05:49:17.240Z,7.50
2018-11-07T05:51:51.023Z,7.40
2018-11-07T05:54:25.902Z,7.40
2018-11-07T05:56:59.682Z,7.40
2018-11-07T05:59:33.563Z,7.30
2018-11-07T06:02:07.351Z,7.30
2018-11-07T06:04:44.623Z,7.30
2018-11-07T06:07:18.345Z,7.30
2018-11-07T06:09:53.724Z,7.30
2018-11-07T06:12:27.903Z,7.30
2018-11-07T06:15:08.277Z,7.30
2018-11-07T06:17:42.042Z,7.30
2018-11-07T06:20:18.361Z,7.30
2018-11-07T06:22:52.163Z,7.30
2018-11-07T06:25:27.417Z,7.30
2018-11-07T06:28:01.200Z,7.20
2018-11-07T06:30:35.327Z,7.20
2018-11-07T06:33:09.129Z,7.20
2018-11-07T06:35:46.677Z,7.20
2018-11-07T06:38:20.680Z,7.20
2018-11-07T06:43:53.218Z,7.20
2018-11-07T06:46:26.989Z,7.30
2018-11-07T06:49:00.833Z,7.30
2018-11-07T06:51:34.652Z,7.40
2018-11-07T06:54:08.451Z,7.40
2018-11-07T06:56:42.294Z,7.50
2018-11-07T06:59:21.878Z,7.50
2018-11-07T07:01:55.654Z,7.60
2018-11-07T07:07:45.163Z,7.60
2018-11-07T07:10:18.914Z,7.70
2018-11-07T07:13:03.934Z,7.90
2018-11-07T07:15:37.679Z,8.30
2018-11-07T07:18:11.550Z,8.80
2018-11-07T07:20:45.520Z,9.20
2018-11-07T07:23:25.981Z,9.70
2018-11-07T07:25:59.757Z,9.90
2018-11-07T07:28:47.200Z,10.10
2018-11-07T07:31:21.050Z,10.50
2018-11-07T07:34:00.507Z,11.10
2018-11-07T07:36:34.292Z,11.60
2018-11-07T07:39:09.745Z,11.80
2018-11-07T07:41:43.573Z,11.80
2018-11-07T07:44:17.448Z,11.90
2018-11-07T07:46:51.195Z,11.40
2018-11-07T07:49:26.092Z,11.60
2018-11-07T07:51:59.943Z,11.70
2018-11-07T07:54:34.348Z,11.70
2018-11-07T07:57:08.650Z,11.70
2018-11-07T07:59:42.451Z,11.70
2018-11-07T08:02:16.266Z,11.70
2018-11-07T08:04:51.722Z,11.10
2018-11-07T08:07:25.487Z,10.90
2018-11-07T08:10:00.366Z,10.20
2018-11-07T08:12:34.090Z,9.80
2018-11-07T08:15:09.412Z,9.60
2018-11-07T08:17:43.826Z,9.50
2018-11-07T08:20:18.298Z,9.50
2018-11-07T08:22:52.050Z,9.50
2018-11-07T08:25:26.873Z,9.70
2018-11-07T08:28:00.614Z,9.80
2018-11-07T08:30:35.560Z,9.90
2018-11-07T08:33:09.510Z,9.80
2018-11-07T08:35:45.369Z,9.70
2018-11-07T08:38:19.194Z,9.70
2018-11-07T08:40:54.018Z,9.70
2018-11-07T08:43:27.789Z,9.80
2018-11-07T08:46:03.642Z,9.90
2018-11-07T08:48:37.373Z,10.10
2018-11-07T08:51:11.171Z,10.30
2018-11-07T08:53:44.901Z,10.40
2018-11-07T08:56:19.729Z,10.60
2018-11-07T08:58:53.507Z,10.50
2018-11-07T09:01:27.341Z,10.50
2018-11-07T09:04:01.294Z,10.50
2018-11-07T09:06:35.174Z,10.50
2018-11-07T09:09:10.773Z,10.80
2018-11-07T09:11:45.618Z,10.90
2018-11-07T09:14:19.416Z,10.90
2018-11-07T09:16:54.259Z,11.00
2018-11-07T09:19:27.982Z,11.00
2018-11-07T09:22:01.833Z,11.00
2018-11-07T09:24:35.648Z,11.00
2018-11-07T09:27:09.587Z,11.10
2018-11-07T09:29:43.355Z,11.40
2018-11-07T09:32:17.208Z,11.40
2018-11-07T09:34:50.984Z,11.60
2018-11-07T09:37:26.312Z,11.50
2018-11-07T09:40:00.051Z,11.50
2018-11-07T09:42:34.587Z,11.60
2018-11-07T09:45:10.569Z,11.90
2018-11-07T09:47:47.465Z,11.90
2018-11-07T09:50:21.884Z,12.00
2018-11-07T09:52:56.201Z,12.20
2018-11-07T09:55:30.661Z,12.10
2018-11-07T09:58:05.046Z,12.20
2018-11-07T10:00:39.519Z,12.40
2018-11-07T10:03:13.881Z,12.30
2018-11-07T10:05:48.230Z,12.10
2018-11-07T10:08:22.636Z,12.00
2018-11-07T10:10:58.032Z,12.00
2018-11-07T10:13:32.411Z,12.10
2018-11-07T10:16:06.763Z,11.80
2018-11-07T10:18:41.093Z,11.90
2018-11-07T10:21:15.461Z,12.20
2018-11-07T10:23:49.788Z,12.10
2018-11-07T10:26:26.190Z,12.30
2018-11-07T10:29:00.728Z,12.70
2018-11-07T10:31:35.154Z,12.50
2018-11-07T10:34:09.499Z,12.40
2018-11-07T10:36:43.862Z,12.50
2018-11-07T10:39:18.223Z,12.70
2018-11-07T10:41:52.591Z,12.60
2018-11-07T10:44:27.084Z,12.90
2018-11-07T10:47:01.555Z,13.10
2018-11-07T10:49:35.947Z,13.40
2018-11-07T10:52:11.307Z,13.80
2018-11-07T10:54:45.650Z,13.50
2018-11-07T10:57:21.141Z,13.20
2018-11-07T10:59:55.515Z,12.70
2018-11-07T11:02:35.016Z,12.80
2018-11-07T11:05:09.386Z,12.40
2018-11-07T11:07:44.126Z,12.80
2018-11-07T11:10:18.486Z,12.40
2018-11-07T11:12:53.835Z,12.50
2018-11-07T11:15:28.245Z,12.90
2018-11-07T11:18:03.646Z,13.00
2018-11-07T11:20:37.982Z,12.70
2018-11-07T11:23:12.465Z,12.40
2018-11-07T11:25:46.804Z,12.10
2018-11-07T11:28:21.361Z,11.80
2018-11-07T11:30:55.717Z,11.70
2018-11-07T11:33:30.133Z,11.80
2018-11-07T11:36:04.897Z,12.30
2018-11-07T11:38:39.263Z,12.80
2018-11-07T11:41:13.696Z,13.20
2018-11-07T11:43:48.220Z,13.90
2018-11-07T11:46:22.549Z,14.10
2018-11-07T11:48:57.128Z,14.30
2018-11-07T11:51:31.701Z,14.10
2018-11-07T11:54:06.116Z,13.90
2018-11-07T11:56:42.606Z,13.30
2018-11-07T11:59:17.210Z,12.80
2018-11-07T12:01:52.343Z,12.40
2018-11-07T12:04:26.868Z,12.10
2018-11-07T12:07:01.285Z,12.10
2018-11-07T12:09:35.691Z,12.10
2018-11-07T12:12:10.032Z,11.70
2018-11-07T12:14:45.595Z,11.20
2018-11-07T12:17:19.947Z,11.20
2018-11-07T12:19:54.324Z,11.10
2018-11-07T12:22:28.660Z,11.30
2018-11-07T12:25:07.242Z,11.50
2018-11-07T12:27:41.963Z,11.50
2018-11-07T12:30:18.861Z,11.60
2018-11-07T12:32:54.182Z,11.70
2018-11-07T12:35:28.488Z,11.70
2018-11-07T12:38:02.871Z,12.00
2018-11-07T12:40:37.248Z,11.80
2018-11-07T12:43:11.601Z,11.70
2018-11-07T12:45:47.008Z,11.50
2018-11-07T12:48:21.312Z,11.10
2018-11-07T12:50:55.744Z,10.90
2018-11-07T12:53:29.507Z,11.10
2018-11-07T12:56:03.882Z,10.90
2018-11-07T12:58:37.664Z,10.90
2018-11-07T13:01:11.488Z,10.90
2018-11-07T13:03:45.842Z,10.90
2018-11-07T13:06:21.246Z,11.00
2018-11-07T13:08:55.586Z,11.00
2018-11-07T13:11:30.954Z,11.10
2018-11-07T13:14:05.302Z,11.10
2018-11-07T13:16:39.136Z,11.00
2018-11-07T13:19:13.318Z,10.70
2018-11-07T13:21:47.170Z,10.50
2018-11-07T13:24:20.914Z,10.40
2018-11-07T13:26:54.704Z,10.20
2018-11-07T13:29:28.495Z,10.10
2018-11-07T13:32:02.325Z,10.10
2018-11-07T13:34:36.248Z,10.00
2018-11-07T13:37:10.253Z,10.00
2018-11-07T13:39:44.053Z,10.10
2018-11-07T13:42:18.853Z,10.30
2018-11-07T13:44:52.645Z,10.40
2018-11-07T13:47:26.425Z,10.40
2018-11-07T13:50:00.192Z,10.50
2018-11-07T13:52:34.200Z,10.60
2018-11-07T13:55:09.047Z,10.80
2018-11-07T13:57:43.567Z,10.80
2018-11-07T14:00:19.031Z,10.70
2018-11-07T14:02:53.736Z,10.60
2018-11-07T14:05:27.643Z,10.40
2018-11-07T14:08:01.729Z,10.30
2018-11-07T14:10:35.523Z,10.30
2018-11-07T14:13:09.534Z,10.30
2018-11-07T14:15:43.435Z,10.30
2018-11-07T14:18:17.749Z,10.30
2018-11-07T14:20:51.529Z,10.30
2018-11-07T14:23:25.401Z,10.30
2018-11-07T14:25:59.189Z,10.30
2018-11-07T14:28:33.219Z,10.30
2018-11-07T14:31:07.227Z,10.30
2018-11-07T14:33:42.482Z,10.30
2018-11-07T14:36:16.255Z,10.30
2018-11-07T14:38:51.655Z,10.20
2018-11-07T14:41:25.641Z,10.30
2018-11-07T14:43:59.761Z,10.20
2018-11-07T14:46:33.735Z,10.20
2018-11-07T14:49:08.994Z,10.20
2018-11-07T14:51:42.799Z,10.10
2018-11-07T14:54:16.779Z,10.10
2018-11-07T14:56:50.688Z,10.10
2018-11-07T14:59:25.320Z,10.00
2018-11-07T15:02:00.817Z,10.00
2018-11-07T15:04:34.712Z,10.00
2018-11-07T15:07:08.540Z,10.00
2018-11-07T15:09:42.459Z,9.90
2018-11-07T15:12:16.227Z,9.90
2018-11-07T15:14:50.115Z,9.90
2018-11-07T15:17:23.944Z,9.90
2018-11-07T15:19:58.330Z,9.80
2018-11-07T15:22:32.125Z,9.70
2018-11-07T15:25:07.095Z,9.60
2018-11-07T15:27:42.662Z,9.60
2018-11-07T15:30:18.198Z,9.50
2018-11-07T15:32:51.972Z,9.50
2018-11-07T15:35:26.829Z,9.50
2018-11-07T15:38:00.617Z,9.50
2018-11-07T15:40:34.465Z,9.40
2018-11-07T15:43:08.237Z,9.40
2018-11-07T15:45:44.169Z,9.40
2018-11-07T15:48:17.923Z,9.40
2018-11-07T15:50:56.828Z,9.40
2018-11-07T15:53:30.673Z,9.30
2018-11-07T15:56:06.734Z,9.30
2018-11-07T15:58:40.518Z,9.30
2018-11-07T16:01:15.398Z,9.20
2018-11-07T16:03:50.169Z,9.20
2018-11-07T16:06:24.163Z,9.10
2018-11-07T16:08:58.949Z,8.90
2018-11-07T16:11:45.167Z,8.80
2018-11-07T16:14:19.420Z,8.60
2018-11-07T16:16:56.277Z,8.50
2018-11-07T16:19:30.080Z,8.50
2018-11-07T16:22:03.929Z,8.60
2018-11-07T16:24:37.705Z,8.70
2018-11-07T16:27:11.533Z,8.70
2018-11-07T16:29:45.369Z,8.70
2018-11-07T16:35:19.096Z,8.80
2018-11-07T16:37:52.920Z,8.80
2018-11-07T16:40:28.198Z,8.80
2018-11-07T16:43:02.145Z,8.80
2018-11-07T16:51:44.459Z,8.70
2018-11-07T16:54:21.647Z,8.70
2018-11-07T17:00:15.677Z,8.60
2018-11-07T17:02:50.167Z,8.60
2018-11-07T17:08:23.443Z,8.50
2018-11-07T17:10:57.261Z,8.50
2018-11-07T17:13:42.156Z,8.50
2018-11-07T17:16:15.999Z,8.50
2018-11-07T17:25:04.455Z,8.40
2018-11-07T17:27:38.605Z,8.40
2018-11-07T17:36:11.900Z,8.20
2018-11-07T17:38:45.747Z,7.90
2018-11-07T17:44:28.344Z,7.90
2018-11-07T17:47:02.221Z,7.90
2018-11-07T18:01:36.778Z,8.20
2018-11-07T18:04:10.651Z,8.10
2018-11-07T18:15:57.393Z,7.90
2018-11-07T18:18:31.223Z,7.90
2018-11-07T18:24:03.829Z,7.80
2018-11-07T18:26:37.615Z,7.70
2018-11-07T18:29:11.493Z,7.70
2018-11-07T18:31:45.301Z,7.60
2018-11-07T18:34:20.443Z,7.50
2018-11-07T18:36:54.362Z,7.50
2018-11-07T18:39:28.125Z,7.50
2018-11-07T18:42:01.985Z,7.60
2018-11-07T18:44:35.891Z,7.50
2018-11-07T18:47:10.460Z,7.60
2018-11-07T18:49:44.360Z,7.70
2018-11-07T18:52:18.398Z,7.60
2018-11-07T18:54:52.228Z,7.70
2018-11-07T18:57:26.138Z,7.80
2018-11-07T18:59:59.914Z,7.90
2018-11-07T19:02:34.115Z,7.90
2018-11-07T19:05:08.210Z,7.90
2018-11-07T19:07:42.505Z,7.90
2018-11-07T19:10:20.653Z,7.90
2018-11-07T19:12:58.679Z,7.80
2018-11-07T19:15:32.459Z,7.70
2018-11-07T19:18:08.465Z,7.60
2018-11-07T19:20:42.265Z,7.50
2018-11-07T19:23:16.132Z,7.60
2018-11-07T19:25:49.994Z,7.70
2018-11-07T19:28:23.990Z,7.70
2018-11-07T19:30:57.791Z,7.80
2018-11-07T19:33:32.156Z,8.00
2018-11-07T19:36:06.121Z,8.00
2018-11-07T19:38:40.427Z,8.00
2018-11-07T19:41:14.372Z,8.00
2018-11-07T19:43:48.532Z,8.00
2018-11-07T19:46:22.313Z,8.00
2018-11-07T19:48:58.408Z,8.00
2018-11-07T19:51:32.271Z,8.00
2018-11-07T19:54:06.621Z,8.10
2018-11-07T19:56:40.419Z,8.00
2018-11-07T19:59:15.398Z,8.10
2018-11-07T20:01:49.197Z,8.00
2018-11-07T20:04:28.170Z,8.00
2018-11-07T20:07:02.038Z,8.00
2018-11-07T20:09:36.377Z,8.10
2018-11-07T20:12:10.218Z,8.00
2018-11-07T20:14:44.594Z,8.00
2018-11-07T20:17:18.439Z,8.00
2018-11-07T20:19:53.089Z,8.00
2018-11-07T20:22:26.890Z,8.00
2018-11-07T20:25:01.804Z,7.90
2018-11-07T20:27:35.681Z,7.90
2018-11-07T20:30:14.650Z,7.80
2018-11-07T20:32:48.477Z,7.90
2018-11-07T20:35:22.852Z,8.00
2018-11-07T20:37:56.806Z,8.00
2018-11-07T20:40:32.367Z,7.90
2018-11-07T20:43:06.512Z,7.80
2018-11-07T20:45:41.564Z,7.60
2018-11-07T20:48:15.358Z,7.60
2018-11-07T20:50:49.318Z,7.50
2018-11-07T20:53:23.204Z,7.50
2018-11-07T20:55:57.530Z,7.50
2018-11-07T20:58:31.499Z,7.50
2018-11-07T21:01:05.739Z,7.50
2018-11-07T21:03:39.532Z,7.50
2018-11-07T21:06:13.416Z,7.50
2018-11-07T21:08:47.225Z,7.50
2018-11-07T21:11:22.153Z,7.50
2018-11-07T21:13:55.958Z,7.60
2018-11-07T21:16:31.916Z,7.60
2018-11-07T21:19:05.862Z,7.50
2018-11-07T21:21:40.187Z,7.50
2018-11-07T21:24:13.988Z,7.40
2018-11-07T21:26:47.808Z,7.40
2018-11-07T21:29:21.592Z,7.30
2018-11-07T21:31:55.565Z,7.10
2018-11-07T21:34:29.380Z,7.00
2018-11-07T21:37:03.325Z,7.00
2018-11-07T21:39:37.120Z,7.10
2018-11-07T21:42:11.015Z,7.10
2018-11-07T21:44:44.814Z,7.30
2018-11-07T21:47:18.955Z,7.30
2018-11-07T21:49:52.756Z,7.30
2018-11-07T21:52:29.037Z,7.40
2018-11-07T21:55:02.810Z,7.40
2018-11-07T21:57:37.001Z,7.40
2018-11-07T22:00:14.897Z,7.40
2018-11-07T22:02:48.673Z,7.40
2018-11-07T22:05:22.656Z,7.30
2018-11-07T22:07:56.386Z,7.30
2018-11-07T22:10:32.311Z,7.30
2018-11-07T22:13:06.346Z,7.20
2018-11-07T22:15:42.392Z,7.20
2018-11-07T22:18:16.134Z,7.10
2018-11-07T22:20:50.925Z,7.10
2018-11-07T22:23:24.670Z,6.90
2018-11-07T22:25:59.559Z,6.60
2018-11-07T22:28:33.359Z,6.40
2018-11-07T22:31:08.200Z,6.20
2018-11-07T22:33:41.979Z,6.00
2018-11-07T22:36:16.867Z,5.80
2018-11-07T22:38:50.708Z,5.70
2018-11-07T22:41:28.251Z,5.70
2018-11-07T22:44:02.042Z,5.80
2018-11-07T22:46:40.479Z,6.00
2018-11-07T22:49:14.477Z,6.00
2018-11-07T22:51:48.301Z,5.80
2018-11-07T22:54:22.066Z,5.80
2018-11-07T22:56:55.911Z,5.80
2018-11-07T22:59:29.668Z,5.90
2018-11-07T23:02:05.602Z,6.00
2018-11-07T23:04:39.378Z,6.00
2018-11-07T23:07:14.221Z,6.10
2018-11-07T23:09:47.997Z,6.20
2018-11-07T23:12:21.793Z,6.20
2018-11-07T23:14:55.586Z,6.40
2018-11-07T23:17:31.511Z,6.40
2018-11-07T23:20:07.646Z,6.40
2018-11-07T23:22:43.502Z,6.40
2018-11-07T23:25:17.357Z,6.40
2018-11-07T23:27:52.224Z,6.40
2018-11-07T23:30:26.032Z,6.40
2018-11-07T23:33:05.649Z,6.40
2018-11-07T23:35:39.409Z,6.30
2018-11-07T23:38:16.365Z,6.30
2018-11-07T23:40:50.121Z,6.30
2018-11-07T23:43:24.002Z,6.40
2018-11-07T23:45:57.815Z,6.70
2018-11-07T23:48:32.618Z,6.80
2018-11-07T23:51:06.426Z,7.00
2018-11-07T23:53:40.237Z,7.10
2018-11-07T23:56:13.978Z,7.20
2018-11-07T23:58:47.867Z,7.20
